Time;durP1;ratioP1;P1;durP2;ratioP2;P2;SDS_P1;SDS_P2;PMS_P1;PMS_P2;Temp;Humidity;BMP_temperature;BMP_pressure;BME280_temperature;BME280_humidity;BME280_pressure;Samples;Min_cycle;Max_cycle;Signal;HPM_P1;HPM_P2
2023/12/05 00:00:13;;;;;;;5.00;3.57;;;1.10;99.90;;;1.77;100.00;96625.66;5057014;28;20476;-80
2023/12/05 00:02:41;;;;;;;5.57;3.50;;;1.10;99.90;;;1.78;100.00;96632.38;5058803;28;20523;-79
2023/12/05 00:05:11;;;;;;;5.00;3.30;;;1.10;99.90;;;1.77;100.00;96626.44;5055966;28;20549;-79
2023/12/05 00:07:42;;;;;;;4.67;3.50;;;1.10;99.90;;;1.77;100.00;96621.28;5055623;28;20470;-79
2023/12/05 00:10:11;;;;;;;4.50;3.57;;;1.10;99.90;;;1.78;100.00;96622.88;5056202;28;20983;-79
2023/12/05 00:12:41;;;;;;;4.00;3.43;;;1.00;99.90;;;1.77;100.00;96616.13;5056291;28;20994;-79
2023/12/05 00:15:10;;;;;;;3.70;3.30;;;1.10;99.90;;;1.77;100.00;96615.34;5058786;28;20465;-79
2023/12/05 00:17:39;;;;;;;3.73;3.03;;;1.00;99.90;;;1.77;100.00;96610.19;5056622;28;20468;-79
2023/12/05 00:20:09;;;;;;;4.10;2.80;;;1.10;99.90;;;1.78;100.00;96611.78;5057682;28;20824;-79
2023/12/05 00:22:40;;;;;;;3.40;2.80;;;1.10;99.90;;;1.78;100.00;96617.72;5055585;28;20480;-79
2023/12/05 00:25:09;;;;;;;4.20;2.80;;;1.10;99.90;;;1.77;100.00;96613.53;5057172;28;20542;-79
2023/12/05 00:27:38;;;;;;;3.00;2.30;;;1.10;99.90;;;1.75;100.00;96607.78;5056656;28;20517;-80
2023/12/05 00:30:08;;;;;;;4.70;3.40;;;1.10;99.90;;;1.77;100.00;96605.81;5056549;28;20970;-78
2023/12/05 00:32:36;;;;;;;5.57;3.73;;;1.00;99.90;;;1.77;100.00;96610.97;5054930;28;20461;-79
2023/12/05 00:35:06;;;;;;;3.20;2.90;;;1.00;99.90;;;1.79;100.00;96603.91;5055302;28;20468;-79
2023/12/05 00:37:35;;;;;;;3.50;2.60;;;1.00;99.90;;;1.79;100.00;96614.19;5054744;28;20878;-78
2023/12/05 00:40:06;;;;;;;3.73;2.60;;;1.00;99.90;;;1.77;100.00;96615.34;5057286;28;20473;-79
2023/12/05 00:42:34;;;;;;;2.70;2.20;;;1.00;99.90;;;1.77;100.00;96620.50;5055428;28;20514;-79
2023/12/05 00:45:03;;;;;;;2.87;2.57;;;1.00;99.90;;;1.76;100.00;96611.16;5056415;28;20496;-79
2023/12/05 00:47:32;;;;;;;5.70;3.90;;;1.20;99.90;;;1.74;100.00;96624.19;5055495;28;20549;-78
2023/12/05 00:50:00;;;;;;;3.67;3.20;;;1.20;99.90;;;1.74;100.00;96625.97;5056075;28;20470;-79
2023/12/05 00:52:29;;;;;;;4.07;2.90;;;1.20;99.90;;;1.74;100.00;96619.03;5056798;28;20460;-79
2023/12/05 00:54:57;;;;;;;3.80;3.20;;;1.10;99.90;;;1.79;100.00;96621.13;5054423;28;20464;-79
2023/12/05 00:57:27;;;;;;;4.87;3.60;;;1.10;99.90;;;1.80;100.00;96620.97;5056918;28;20490;-79
2023/12/05 00:59:56;;;;;;;4.27;3.10;;;1.10;99.90;;;1.79;100.00;96628.84;5055616;28;20470;-79
2023/12/05 01:02:24;;;;;;;3.07;2.80;;;1.10;99.90;;;1.77;100.00;96610.19;5056203;28;20513;-78
2023/12/05 01:04:53;;;;;;;6.87;3.50;;;1.10;99.90;;;1.81;100.00;96608.88;5052859;28;20484;-79
2023/12/05 01:07:22;;;;;;;4.43;2.97;;;1.10;99.90;;;1.82;100.00;96613.06;5055449;28;20463;-79
2023/12/05 01:09:50;;;;;;;4.40;2.90;;;1.10;99.90;;;1.84;100.00;96619.63;5053428;28;20475;-78
2023/12/05 01:12:19;;;;;;;4.60;3.10;;;1.10;99.90;;;1.81;100.00;96612.25;5054640;28;20759;-79
2023/12/05 01:14:48;;;;;;;4.27;3.63;;;1.10;99.90;;;1.83;100.00;96622.41;5054108;28;20476;-79
2023/12/05 01:17:17;;;;;;;3.60;2.83;;;1.10;99.90;;;1.83;100.00;96615.47;5053958;28;20456;-79
2023/12/05 01:19:45;;;;;;;4.93;3.00;;;1.10;99.90;;;1.81;100.00;96617.41;5053969;28;20975;-79
2023/12/05 01:22:14;;;;;;;4.37;3.10;;;1.10;99.90;;;1.83;100.00;96619.81;5054379;28;20483;-79
2023/12/05 01:24:42;;;;;;;8.93;3.97;;;1.10;99.90;;;1.85;100.00;96628.16;5055419;28;20522;-79
2023/12/05 01:27:11;;;;;;;6.10;3.80;;;1.10;99.90;;;1.84;100.00;96611.13;5052001;28;20461;-79
2023/12/05 01:29:39;;;;;;;5.30;3.23;;;1.10;99.90;;;1.87;100.00;96621.09;5054229;28;20529;-80
2023/12/05 01:32:09;;;;;;;5.30;2.87;;;1.20;99.90;;;1.84;100.00;96613.69;5053943;28;20519;-78
2023/12/05 01:34:38;;;;;;;4.20;2.93;;;1.10;99.90;;;1.84;100.00;96614.47;5053231;28;20887;-79
2023/12/05 01:37:06;;;;;;;4.50;3.17;;;1.20;99.90;;;1.87;100.00;96621.09;5052518;28;20453;-79
2023/12/05 01:39:35;;;;;;;3.90;3.07;;;1.20;99.90;;;1.87;100.00;96621.09;5054232;28;20471;-79
2023/12/05 01:42:04;;;;;;;3.10;2.80;;;1.20;99.90;;;1.87;100.00;96618.53;5053871;28;20527;-79
2023/12/05 01:44:32;;;;;;;3.83;3.20;;;1.20;99.90;;;1.86;100.00;96612.56;5051448;28;21026;-79
2023/12/05 01:47:02;;;;;;;3.60;2.93;;;1.20;99.90;;;1.86;100.00;96606.59;5052713;28;20460;-79
2023/12/05 01:49:33;;;;;;;3.53;2.60;;;1.20;99.90;;;1.88;100.00;96604.63;5055388;28;20550;-79
2023/12/05 01:52:05;;;;;;;4.30;2.90;;;1.20;99.90;;;1.87;100.00;96609.03;5051718;28;20485;-79
2023/12/05 01:54:37;;;;;;;3.63;3.10;;;1.20;99.90;;;1.88;100.00;96607.22;5055530;28;20493;-80
2023/12/05 01:57:07;;;;;;;5.77;3.00;;;1.20;99.90;;;1.87;100.00;96606.44;5054161;28;21266;-80
2023/12/05 01:59:36;;;;;;;5.37;2.90;;;1.10;99.90;;;1.89;100.00;96607.06;5052165;28;20479;-79
2023/12/05 02:02:05;;;;;;;4.63;3.30;;;1.20;99.90;;;1.89;100.00;96603.69;5052680;28;20472;-79
2023/12/05 02:04:36;;;;;;;6.50;3.80;;;1.20;99.90;;;1.89;100.00;96603.69;5053096;28;20464;-79
2023/12/05 02:07:05;;;;;;;8.00;4.80;;;1.10;99.90;;;1.91;100.00;96601.72;5054734;28;20873;-79
2023/12/05 02:09:34;;;;;;;6.37;3.63;;;1.20;99.90;;;1.90;100.00;96595.78;5052470;28;20462;-79
2023/12/05 02:12:02;;;;;;;6.30;3.70;;;1.10;99.90;;;1.89;100.00;96599.34;5054081;28;20461;-79
2023/12/05 02:14:31;;;;;;;7.30;3.50;;;1.10;99.90;;;1.87;100.00;96597.91;5052132;28;21247;-79
2023/12/05 02:17:10;;;;;;;3.77;3.20;;;1.00;99.90;;;1.89;100.00;96596.75;5053264;28;20476;-79
2023/12/05 02:19:53;;;;;;;3.23;2.80;;;1.10;99.90;;;1.90;100.00;96594.97;5052174;28;20456;-79
2023/12/05 02:22:58;;;;;;;7.30;4.10;;;1.10;99.90;;;1.90;100.00;96594.97;5053524;28;20491;-79
2023/12/05 02:25:48;;;;;;;3.97;3.17;;;1.10;99.90;;;1.90;100.00;96595.78;5051163;28;20496;-79
2023/12/05 02:28:19;;;;;;;5.90;3.63;;;1.10;99.90;;;1.89;100.00;96590.78;5052397;28;20463;-79
2023/12/05 02:30:48;;;;;;;13.93;3.10;;;1.10;99.90;;;1.89;100.00;96598.53;5053022;28;20461;-78
2023/12/05 02:33:17;;;;;;;3.53;2.90;;;1.30;99.90;;;1.88;100.00;96602.06;5053876;28;21048;-79
2023/12/05 02:35:49;;;;;;;5.57;3.37;;;1.10;99.90;;;1.87;100.00;96593.56;5053333;28;20456;-79
2023/12/05 02:38:26;;;;;;;4.97;2.87;;;1.20;99.90;;;1.88;100.00;96600.28;5052520;28;20526;-79
2023/12/05 02:41:07;;;;;;;5.43;3.23;;;1.20;99.90;;;1.88;100.00;96599.50;5053207;28;20840;-80
2023/12/05 02:43:54;;;;;;;4.00;3.33;;;1.10;99.90;;;1.90;100.00;96600.13;5052877;28;20456;-79
2023/12/05 02:46:23;;;;;;;3.23;2.83;;;1.10;99.90;;;1.88;100.00;96599.50;5051299;28;20898;-79
2023/12/05 02:48:53;;;;;;;4.00;2.93;;;1.10;99.90;;;1.90;100.00;96597.56;5053226;28;20479;-79
2023/12/05 02:51:22;;;;;;;2.43;2.10;;;1.10;99.90;;;1.90;100.00;96592.41;5052436;28;20459;-79
2023/12/05 02:53:50;;;;;;;3.20;2.73;;;1.10;99.90;;;1.91;100.00;96594.81;5053286;28;20461;-79
2023/12/05 02:56:20;;;;;;;3.03;2.70;;;1.10;99.90;;;1.90;100.00;96594.97;5051314;28;20464;-80
2023/12/05 02:58:49;;;;;;;5.13;2.80;;;1.20;99.90;;;1.91;100.00;96586.25;5051907;28;20461;-79
2023/12/05 03:01:18;;;;;;;4.50;3.27;;;1.10;99.90;;;1.92;100.00;96595.59;5051782;28;20963;-79
2023/12/05 03:03:46;;;;;;;4.47;3.23;;;1.20;99.90;;;1.92;100.00;96593.03;5051738;28;20467;-79
2023/12/05 03:06:15;;;;;;;3.87;2.73;;;1.20;99.90;;;1.91;100.00;96594.00;5048856;28;20889;-79
2023/12/05 03:08:43;;;;;;;4.13;2.73;;;1.20;99.90;;;1.92;100.00;96586.09;5054722;28;20463;-79
2023/12/05 03:11:12;;;;;;;3.50;3.17;;;1.20;99.90;;;1.92;100.00;96580.16;5052655;28;20986;-79
2023/12/05 03:13:41;;;;;;;3.73;2.70;;;1.30;99.90;;;1.94;100.00;96586.72;5053680;28;20963;-79
2023/12/05 03:16:11;;;;;;;3.87;3.23;;;1.20;99.90;;;1.94;100.00;96598.84;5051893;28;20536;-79
2023/12/05 03:18:40;;;;;;;4.23;3.47;;;1.20;99.90;;;1.96;100.00;96599.47;5056500;28;20459;-79
2023/12/05 03:21:09;;;;;;;5.67;3.13;;;1.20;99.90;;;1.96;100.00;96599.47;5053901;28;20836;-79
2023/12/05 03:23:38;;;;;;;3.20;2.90;;;1.20;99.90;;;1.96;100.00;96594.31;5054263;28;20484;-79
2023/12/05 03:26:07;;;;;;;3.60;2.90;;;1.20;99.90;;;1.95;100.00;96590.91;5052884;28;20495;-79
2023/12/05 03:28:36;;;;;;;4.27;2.57;;;1.30;99.90;;;1.95;100.00;96593.50;5054387;28;20471;-80
2023/12/05 03:31:05;;;;;;;4.60;3.50;;;1.20;99.90;;;1.94;100.00;96596.25;5052703;28;20471;-79
2023/12/05 03:33:37;;;;;;;3.27;2.73;;;1.30;99.90;;;1.94;100.00;96591.09;5053717;28;20479;-79
2023/12/05 03:36:07;;;;;;;3.93;3.07;;;1.40;99.90;;;1.96;100.00;96591.72;5053694;28;20487;-79
2023/12/05 03:38:38;;;;;;;3.17;2.30;;;1.30;99.90;;;1.97;100.00;96594.16;5051970;28;20473;-78
2023/12/05 03:41:09;;;;;;;4.37;2.70;;;1.30;99.90;;;1.96;100.00;96595.09;5054256;28;20478;-79
2023/12/05 03:43:37;;;;;;;4.63;3.07;;;1.30;99.90;;;1.98;100.00;96590.56;5051866;28;20486;-78
2023/12/05 03:46:06;;;;;;;5.57;2.60;;;1.30;99.90;;;1.97;100.00;96601.06;5053600;28;20913;-78
2023/12/05 03:48:37;;;;;;;2.83;2.53;;;1.30;99.90;;;1.95;100.00;96608.97;5055061;28;20468;-79
2023/12/05 03:51:07;;;;;;;5.27;3.23;;;1.40;99.90;;;1.97;100.00;96607.03;5054684;28;21303;-79
2023/12/05 03:53:35;;;;;;;2.90;2.60;;;1.30;99.90;;;1.99;100.00;96610.22;5054306;28;20467;-78
2023/12/05 03:56:05;;;;;;;5.30;2.60;;;1.30;99.90;;;2.01;100.00;96612.66;5052008;28;20479;-79
2023/12/05 03:58:33;;;;;;;4.40;2.90;;;1.30;99.90;;;2.00;100.00;96613.63;5051194;28;20463;-79
2023/12/05 04:01:02;;;;;;;2.67;2.47;;;1.30;99.90;;;2.00;100.00;96611.03;5053950;28;20480;-78
2023/12/05 04:03:30;;;;;;;3.80;2.80;;;1.40;99.90;;;2.01;100.00;96615.22;5052173;28;20463;-78
2023/12/05 04:06:00;;;;;;;3.97;2.40;;;1.40;99.90;;;2.00;100.00;96622.16;5052419;28;20513;-78
2023/12/05 04:08:29;;;;;;;3.10;2.20;;;1.40;99.90;;;1.99;100.00;96617.97;5051347;28;20484;-78
2023/12/05 04:10:57;;;;;;;8.37;5.43;;;1.50;99.90;;;2.01;100.00;96622.97;5053326;28;20462;-78
2023/12/05 04:13:26;;;;;;;3.63;2.70;;;1.50;99.90;;;1.98;100.00;96624.09;5054445;28;20563;-76
2023/12/05 04:15:57;;;;;;;3.10;2.80;;;1.40;99.90;;;2.01;100.00;96623.75;5053138;28;20484;-78
2023/12/05 04:18:26;;;;;;;3.03;2.43;;;1.40;99.90;;;2.01;100.00;96622.97;5054317;28;20534;-78
2023/12/05 04:20:54;;;;;;;2.33;1.90;;;1.40;99.90;;;2.00;100.00;96626.50;5054340;28;20490;-78
2023/12/05 04:23:24;;;;;;;2.67;2.00;;;1.50;99.90;;;2.00;100.00;96619.56;5055370;28;20996;-79
2023/12/05 04:25:53;;;;;;;2.57;2.30;;;1.50;99.90;;;2.01;100.00;96620.38;5056173;28;20461;-77
2023/12/05 04:28:22;;;;;;;3.47;2.60;;;1.40;99.90;;;2.00;100.00;96629.09;5051930;28;20956;-79
2023/12/05 04:30:50;;;;;;;4.20;2.53;;;1.40;99.90;;;2.01;100.00;96622.97;5052727;28;20468;-79
2023/12/05 04:33:19;;;;;;;3.77;2.00;;;1.40;99.90;;;2.01;100.00;96628.13;5056619;28;20492;-78
2023/12/05 04:35:47;;;;;;;2.50;1.80;;;1.30;99.90;;;2.01;100.00;96634.06;5056038;28;20820;-79
2023/12/05 04:38:17;;;;;;;3.10;1.80;;;1.40;99.90;;;2.03;100.00;96637.28;5057402;28;20464;-78
2023/12/05 04:40:47;;;;;;;2.93;2.40;;;1.40;99.90;;;2.06;100.00;96630.97;5056303;28;20465;-79
2023/12/05 04:43:16;;;;;;;2.80;1.80;;;1.40;99.90;;;2.06;100.00;96636.13;5057365;28;20538;-78
2023/12/05 04:45:44;;;;;;;3.90;1.80;;;1.40;99.90;;;2.08;100.00;96634.19;5056146;28;20467;-78
2023/12/05 04:48:14;;;;;;;3.80;1.60;;;1.40;99.90;;;2.06;100.00;96630.97;5055648;28;20535;-78
2023/12/05 04:50:44;;;;;;;2.10;1.73;;;1.40;99.90;;;2.06;100.00;96630.97;5057063;28;20455;-78
2023/12/05 04:53:12;;;;;;;3.97;2.00;;;1.50;99.90;;;2.08;100.00;96631.63;5055370;28;20982;-78
2023/12/05 04:55:41;;;;;;;2.40;1.70;;;1.50;99.90;;;2.08;100.00;96630.81;5055822;28;20471;-78
2023/12/05 04:58:11;;;;;;;2.30;1.50;;;1.40;99.90;;;2.07;100.00;96626.63;5055511;28;20460;-78
2023/12/05 05:00:39;;;;;;;1.90;1.40;;;1.40;99.90;;;2.05;100.00;96620.84;5054018;28;20856;-79
2023/12/05 05:03:08;;;;;;;1.70;1.23;;;1.30;99.90;;;2.05;100.00;96623.44;5050966;28;22187;-78
2023/12/05 05:05:36;;;;;;;11.90;6.07;;;1.40;99.90;;;2.07;100.00;96630.00;5052756;28;21054;-78
2023/12/05 05:08:05;;;;;;;1.57;1.47;;;1.40;99.90;;;2.07;100.00;96630.00;5053444;28;20508;-78
2023/12/05 05:10:34;;;;;;;1.30;1.20;;;1.40;99.90;;;2.08;100.00;96635.97;5054941;28;20486;-78
2023/12/05 05:13:02;;;;;;;1.53;1.10;;;1.50;99.90;;;2.09;100.00;96634.97;5051809;28;20473;-78
2023/12/05 05:15:32;;;;;;;1.70;1.60;;;1.50;99.90;;;2.11;100.00;96633.06;5055960;28;21034;-78
2023/12/05 05:18:01;;;;;;;1.00;0.90;;;1.60;99.90;;;2.11;100.00;96631.28;5054396;28;20467;-78
2023/12/05 05:20:30;;;;;;;1.87;1.43;;;1.50;99.90;;;2.14;100.00;96636.09;5054533;28;20461;-77
2023/12/05 05:22:58;;;;;;;1.27;1.10;;;1.50;99.90;;;2.14;100.00;96638.69;5051465;28;20484;-76
2023/12/05 05:25:25;;;;;;;2.80;1.23;;;1.50;99.90;;;2.12;100.00;96630.28;5051027;28;20554;-78
2023/12/05 05:27:54;;;;;;;1.30;1.20;;;1.50;99.90;;;2.15;100.00;96639.47;5052020;28;20529;-77
2023/12/05 05:30:23;;;;;;;1.27;1.17;;;1.50;99.90;;;2.13;100.00;96639.63;5051900;28;21418;-79
2023/12/05 05:32:53;;;;;;;1.37;1.10;;;1.50;99.90;;;2.17;100.00;96642.69;5051921;28;21174;-78
2023/12/05 05:35:22;;;;;;;4.03;2.47;;;1.50;99.90;;;2.15;100.00;96642.06;5048468;28;20461;-78
2023/12/05 05:37:52;;;;;;;13.13;5.80;;;1.50;99.90;;;2.13;100.00;96642.22;5054022;28;20474;-78
2023/12/05 05:40:21;;;;;;;1.53;1.10;;;1.60;99.90;;;2.18;100.00;96639.16;5049205;28;20476;-78
2023/12/05 05:42:49;;;;;;;1.13;1.03;;;1.70;99.90;;;2.19;100.00;96628.66;5053511;28;20964;-78
2023/12/05 05:45:18;;;;;;;1.20;1.00;;;1.70;99.90;;;2.21;100.00;96639.59;5049664;28;20492;-78
2023/12/05 05:47:50;;;;;;;1.70;1.00;;;1.60;99.90;;;2.23;100.00;96637.66;5055885;28;20524;-77
2023/12/05 05:50:23;;;;;;;2.63;1.50;;;1.60;99.90;;;2.19;100.00;96636.38;5056124;28;20459;-76
2023/12/05 05:52:53;;;;;;;1.00;0.90;;;1.60;99.90;;;2.23;100.00;96642.00;5055066;28;20465;-77
2023/12/05 05:55:24;;;;;;;2.90;1.40;;;1.70;99.90;;;2.21;100.00;96644.75;5054553;28;20944;-77
2023/12/05 05:57:53;;;;;;;1.37;1.10;;;1.70;99.90;;;2.25;100.00;96646.03;5053531;28;20526;-77
2023/12/05 06:00:23;;;;;;;1.23;1.00;;;1.70;99.90;;;2.24;100.00;96649.56;5056381;28;20480;-77
2023/12/05 06:02:51;;;;;;;1.30;1.10;;;1.70;99.90;;;2.29;100.00;96652.44;5056163;28;20559;-77
2023/12/05 06:05:20;;;;;;;1.33;0.90;;;1.70;99.90;;;2.27;100.00;96648.44;5055239;28;20514;-77
2023/12/05 06:07:50;;;;;;;1.10;1.00;;;1.80;99.90;;;2.30;100.00;96654.03;5057122;28;20504;-77
2023/12/05 06:10:19;;;;;;;1.70;1.50;;;1.80;99.90;;;2.29;100.00;96651.66;5056336;28;20500;-77
2023/12/05 06:12:47;;;;;;;3.57;1.10;;;1.70;99.90;;;2.31;100.00;96655.66;5057172;28;20465;-77
2023/12/05 06:15:16;;;;;;;1.30;1.20;;;1.70;99.90;;;2.30;100.00;96643.72;5058288;28;20482;-77
2023/12/05 06:17:44;;;;;;;4.10;1.00;;;1.80;99.90;;;2.33;100.00;96643.38;5055180;28;20461;-77
2023/12/05 06:20:13;;;;;;;1.20;1.10;;;1.70;99.90;;;2.37;100.00;96646.44;5054657;28;20456;-76
2023/12/05 06:22:41;;;;;;;1.50;1.40;;;1.70;99.90;;;2.41;100.00;96643.34;5055286;28;20481;-77
2023/12/05 06:25:11;;;;;;;1.37;1.10;;;1.80;99.90;;;2.41;100.00;96645.13;5055708;28;20471;-77
2023/12/05 06:27:40;;;;;;;2.10;1.20;;;1.80;99.90;;;2.40;100.00;96648.66;5053955;28;20500;-77
2023/12/05 06:30:10;;;;;;;1.17;1.03;;;1.80;99.90;;;2.44;100.00;96649.94;5054318;28;20464;-78
2023/12/05 06:32:49;;;;;;;1.73;1.30;;;1.90;99.90;;;2.46;100.00;96659.09;5056560;28;20514;-77
2023/12/05 06:35:17;;;;;;;1.80;1.00;;;1.90;99.90;;;2.47;100.00;96655.56;5055733;28;20527;-77
2023/12/05 06:37:55;;;;;;;0.90;0.90;;;1.80;99.90;;;2.44;100.00;96662.84;5056381;28;20511;-78
2023/12/05 06:40:25;;;;;;;3.50;1.40;;;1.80;99.90;;;2.47;100.00;96660.72;5053778;28;20473;-77
2023/12/05 06:43:08;;;;;;;1.23;1.13;;;1.90;99.90;;;2.47;100.00;96665.88;5055697;28;20947;-77
2023/12/05 06:45:37;;;;;;;0.90;0.90;;;1.90;99.90;;;2.50;100.00;96656.97;5053608;28;20466;-77
2023/12/05 06:48:06;;;;;;;1.20;1.10;;;1.90;99.90;;;2.52;100.00;96663.59;5055405;28;20497;-77
2023/12/05 06:50:34;;;;;;;3.00;1.37;;;1.90;99.90;;;2.49;100.00;96666.53;5055720;28;20467;-77
2023/12/05 06:53:03;;;;;;;1.30;1.10;;;1.80;99.90;;;2.51;100.00;96661.97;5054422;28;20535;-77
2023/12/05 06:55:33;;;;;;;1.67;1.30;;;1.90;99.90;;;2.53;100.00;96660.03;5054689;28;20456;-77
2023/12/05 06:58:03;;;;;;;1.40;1.30;;;1.70;99.90;;;2.54;100.00;96668.56;5055516;28;20473;-77
2023/12/05 07:00:31;;;;;;;2.00;1.33;;;1.80;99.90;;;2.59;100.00;96665.47;5055455;28;20576;-77
2023/12/05 07:02:59;;;;;;;5.40;1.30;;;1.90;99.90;;;2.59;100.00;96668.88;5055792;28;20457;-77
2023/12/05 07:05:43;;;;;;;2.47;1.23;;;1.90;99.90;;;2.57;100.00;96664.88;5055848;28;20491;-77
2023/12/05 07:08:12;;;;;;;2.40;1.90;;;1.90;99.90;;;2.59;100.00;96679.19;5055121;28;20484;-77
2023/12/05 07:10:42;;;;;;;1.83;1.13;;;1.80;99.90;;;2.57;100.00;96683.72;5058064;28;20465;-77
2023/12/05 07:13:10;;;;;;;1.40;1.10;;;1.90;99.90;;;2.60;100.00;96687.75;5055516;28;20456;-76
2023/12/05 07:15:39;;;;;;;1.03;0.93;;;1.90;99.90;;;2.58;100.00;96692.25;5055897;28;20469;-77
2023/12/05 07:18:07;;;;;;;1.80;1.20;;;1.90;99.90;;;2.57;100.00;96688.09;5054440;28;20464;-77
2023/12/05 07:20:36;;;;;;;1.83;1.10;;;1.90;99.90;;;2.53;100.00;96696.13;5051901;28;20468;-77
2023/12/05 07:23:24;;;;;;;1.37;1.17;;;1.90;99.90;;;2.54;100.00;96704.69;5053942;28;20453;-77
2023/12/05 07:25:56;;;;;;;2.43;1.37;;;1.80;99.90;;;2.57;100.00;96712.09;5053067;28;20489;-78
2023/12/05 07:28:25;;;;;;;3.07;1.00;;;1.90;99.90;;;2.59;100.00;96706.75;5053625;28;20492;-77
2023/12/05 07:30:53;;;;;;;3.63;1.50;;;1.80;99.90;;;2.58;100.00;96702.56;5052938;28;20964;-77
2023/12/05 07:33:23;;;;;;;0.90;0.90;;;1.90;99.90;;;2.58;100.00;96702.56;5055155;28;20460;-77
2023/12/05 07:35:52;;;;;;;1.20;1.10;;;1.90;99.90;;;2.60;100.00;96711.78;5054213;28;20469;-77
2023/12/05 07:38:20;;;;;;;1.07;0.87;;;1.90;99.90;;;2.59;100.00;96709.34;5053876;28;20477;-77
2023/12/05 07:40:49;;;;;;;1.17;1.00;;;2.00;99.90;;;2.62;100.00;96709.00;5056105;28;20510;-77
2023/12/05 07:43:18;;;;;;;0.90;0.80;;;1.90;99.90;;;2.62;100.00;96714.16;5058131;28;20459;-77
2023/12/05 07:45:47;;;;;;;4.67;1.17;;;1.90;99.90;;;2.63;100.00;96710.63;5057627;28;21008;-78
2023/12/05 07:48:15;;;;;;;4.30;1.63;;;1.90;99.90;;;2.66;100.00;96711.09;5058940;28;20495;-77
2023/12/05 07:50:44;;;;;;;1.50;1.03;;;2.00;99.90;;;2.68;100.00;96709.13;5058473;28;20456;-77
2023/12/05 07:53:13;;;;;;;5.60;1.20;;;2.10;99.90;;;2.71;100.00;96700.25;5058997;28;20464;-77
2023/12/05 07:55:42;;;;;;;3.93;1.30;;;2.10;99.90;;;2.73;100.00;96708.63;5058130;28;20509;-77
2023/12/05 07:58:10;;;;;;;1.27;1.00;;;2.00;99.90;;;2.76;100.00;96709.06;5057386;28;20971;-77
2023/12/05 08:00:40;;;;;;;2.00;1.00;;;2.20;99.90;;;2.84;100.00;96715.97;5057080;28;20484;-78
2023/12/05 08:03:12;;;;;;;1.50;1.30;;;2.20;99.90;;;2.86;100.00;96717.41;5058881;28;20522;-78
2023/12/05 08:05:41;;;;;;;2.53;1.17;;;2.30;99.90;;;2.92;100.00;96710.72;5058632;28;20554;-78
2023/12/05 08:08:10;;;;;;;1.10;0.90;;;2.30;99.90;;;2.95;100.00;96713.00;5057977;28;20564;-78
2023/12/05 08:10:39;;;;;;;1.57;1.00;;;2.40;99.90;;;2.99;100.00;96711.66;5058428;28;20461;-78
2023/12/05 08:13:07;;;;;;;1.07;1.00;;;2.40;99.90;;;3.01;100.00;96713.09;5059020;28;21261;-78
2023/12/05 08:15:37;;;;;;;1.00;0.90;;;2.50;99.90;;;3.09;100.00;96709.63;5057503;28;20483;-78
2023/12/05 08:18:06;;;;;;;0.70;0.70;;;2.60;99.90;;;3.16;100.00;96718.28;5057651;28;20466;-78
2023/12/05 08:20:35;;;;;;;1.57;0.93;;;2.60;99.90;;;3.20;100.00;96721.34;5056622;28;20490;-79
2023/12/05 08:23:06;;;;;;;1.23;0.90;;;2.60;99.90;;;3.33;100.00;96724.16;5056208;28;20521;-79
2023/12/05 08:25:34;;;;;;;1.27;1.10;;;2.80;99.90;;;3.39;100.00;96724.25;5056735;28;20490;-78
2023/12/05 08:28:03;;;;;;;2.70;1.20;;;2.90;99.90;;;3.47;100.00;96736.31;5057573;28;20468;-79
2023/12/05 08:30:31;;;;;;;1.10;1.00;;;3.00;99.90;;;3.49;100.00;96714.47;5058518;28;20561;-78
2023/12/05 08:33:00;;;;;;;0.97;0.87;;;3.00;99.90;;;3.52;100.00;96719.28;5057347;28;20463;-78
2023/12/05 08:35:30;;;;;;;0.80;0.80;;;3.00;99.90;;;3.53;100.00;96725.25;5055335;28;21046;-78
2023/12/05 08:37:59;;;;;;;0.80;0.80;;;3.00;99.90;;;3.55;100.00;96724.09;5056289;28;20454;-78
2023/12/05 08:40:27;;;;;;;0.80;0.80;;;3.00;99.90;;;3.60;100.00;96735.69;5056998;28;20465;-78
2023/12/05 08:42:56;;;;;;;1.20;1.10;;;3.20;99.90;;;3.64;100.00;96731.78;5057833;28;20458;-78
2023/12/05 08:45:25;;;;;;;1.13;1.00;;;3.20;99.90;;;3.68;100.00;96730.47;5055435;28;20466;-78
2023/12/05 08:47:54;;;;;;;0.83;0.83;;;3.30;99.90;;;3.73;100.00;96730.72;5058276;28;20467;-78
2023/12/05 08:50:23;;;;;;;1.43;0.93;;;3.40;99.90;;;3.79;100.00;96725.63;5056058;28;20510;-78
2023/12/05 08:52:53;;;;;;;1.17;0.97;;;3.40;99.90;;;3.86;100.00;96728.31;5059065;28;20481;-78
2023/12/05 08:55:22;;;;;;;1.20;1.10;;;3.50;99.90;;;3.91;100.00;96732.00;5057676;28;20468;-78
2023/12/05 08:57:50;;;;;;;1.60;1.13;;;3.50;99.90;;;3.95;100.00;96733.25;5058394;28;20464;-78
2023/12/05 09:00:19;;;;;;;3.17;1.30;;;3.60;99.90;;;4.01;100.00;96732.53;5055978;28;20476;-78
2023/12/05 09:02:48;;;;;;;4.67;1.13;;;3.60;99.90;;;4.07;100.00;96739.56;5057783;28;20898;-78
2023/12/05 09:05:17;;;;;;;0.83;0.83;;;3.70;99.90;;;4.14;100.00;96734.47;5057532;28;20463;-78
2023/12/05 09:07:45;;;;;;;2.07;1.10;;;3.80;99.90;;;4.16;100.00;96740.28;5057162;28;20471;-78
2023/12/05 09:10:19;;;;;;;0.80;0.80;;;3.80;99.90;;;4.17;100.00;96741.06;5057737;28;20499;-78
2023/12/05 09:12:48;;;;;;;1.13;0.90;;;3.70;99.90;;;4.22;100.00;96743.94;5056481;28;20461;-78
2023/12/05 09:15:16;;;;;;;1.00;0.90;;;3.80;99.90;;;4.23;100.00;96745.53;5057333;28;21077;-78
2023/12/05 09:17:45;;;;;;;0.97;0.87;;;3.90;99.90;;;4.25;100.00;96746.16;5054809;28;20465;-78
2023/12/05 09:20:14;;;;;;;1.87;1.00;;;3.80;99.90;;;4.26;100.00;96746.00;5055919;28;21432;-78
2023/12/05 09:22:46;;;;;;;2.87;1.30;;;3.80;99.90;;;4.27;100.00;96755.34;5056233;28;20781;-78
2023/12/05 09:25:18;;;;;;;1.37;1.10;;;3.90;99.90;;;4.25;100.00;96754.72;5058328;28;20898;-78
2023/12/05 09:27:46;;;;;;;2.07;1.20;;;3.80;99.90;;;4.25;100.00;96759.91;5054439;28;20464;-78
2023/12/05 09:30:16;;;;;;;1.23;1.13;;;3.80;99.90;;;4.27;100.00;96752.75;5055988;28;20503;-78
2023/12/05 09:32:44;;;;;;;1.77;1.10;;;3.80;99.90;;;4.31;100.00;96756.59;5056181;28;20468;-78
2023/12/05 09:35:13;;;;;;;1.43;1.03;;;3.90;99.90;;;4.31;100.00;96750.59;5055336;28;20464;-78
2023/12/05 09:37:41;;;;;;;7.87;1.23;;;3.90;99.90;;;4.33;100.00;96767.56;5055415;28;20485;-78
2023/12/05 09:40:11;;;;;;;1.67;1.40;;;3.90;99.90;;;4.34;100.00;96761.41;5056586;28;22232;-78
2023/12/05 09:42:47;;;;;;;1.90;1.43;;;4.00;99.90;;;4.39;100.00;96766.84;5055442;28;20472;-77
2023/12/05 09:45:17;;;;;;;1.20;1.10;;;4.00;99.90;;;4.42;100.00;96769.06;5056852;28;20541;-77
2023/12/05 09:47:48;;;;;;;1.50;0.97;;;4.00;99.90;;;4.45;100.00;96771.31;5056611;28;21438;-77
2023/12/05 09:50:19;;;;;;;1.20;1.10;;;4.00;99.90;;;4.44;100.00;96772.28;5056861;28;20484;-77
2023/12/05 09:52:48;;;;;;;1.10;0.93;;;4.00;99.90;;;4.44;100.00;96774.84;5055307;28;20475;-77
2023/12/05 09:55:18;;;;;;;1.00;0.87;;;4.00;99.90;;;4.47;100.00;96777.13;5057852;28;21035;-77
2023/12/05 09:57:49;;;;;;;2.60;1.07;;;4.10;99.90;;;4.50;100.00;96769.00;5056752;28;20468;-77
2023/12/05 10:00:19;;;;;;;0.80;0.80;;;4.20;99.90;;;4.56;100.00;96763.09;5056587;28;20523;-77
2023/12/05 10:02:49;;;;;;;3.70;0.87;;;4.30;99.90;;;4.62;100.00;96778.88;5057261;28;20464;-76
2023/12/05 10:05:21;;;;;;;1.23;0.90;;;4.30;99.90;;;4.60;100.00;96781.63;5056552;28;20456;-77
2023/12/05 10:07:51;;;;;;;1.10;1.00;;;4.20;99.90;;;4.63;100.00;96776.09;5056663;28;20868;-77
2023/12/05 10:10:22;;;;;;;1.00;0.80;;;4.20;99.90;;;4.70;100.00;96771.00;5056908;28;20541;-77
2023/12/05 10:12:56;;;;;;;1.17;0.80;;;4.30;99.90;;;4.72;100.00;96772.41;5054567;28;20477;-77
2023/12/05 10:15:26;;;;;;;1.13;1.03;;;4.30;99.90;;;4.68;100.00;96775.56;5055544;28;20472;-77
2023/12/05 10:17:55;;;;;;;1.33;0.90;;;4.30;99.90;;;4.71;100.00;96777.78;5054027;28;20458;-77
2023/12/05 10:20:25;;;;;;;1.10;1.00;;;4.30;99.90;;;4.69;100.00;96779.72;5054534;28;20480;-77
2023/12/05 10:22:54;;;;;;;1.10;0.93;;;4.30;99.90;;;4.72;100.00;96779.41;5053231;28;20590;-77
2023/12/05 10:25:23;;;;;;;1.50;0.93;;;4.30;99.90;;;4.74;100.00;96782.59;5054028;28;20948;-78
2023/12/05 10:28:05;;;;;;;0.87;0.80;;;4.40;99.90;;;4.81;100.00;96779.09;5055168;28;20477;-77
2023/12/05 10:30:37;;;;;;;1.30;0.97;;;4.40;99.90;;;4.82;100.00;96777.31;5054484;28;20494;-77
2023/12/05 10:33:13;;;;;;;0.70;0.70;;;4.50;99.90;;;4.87;100.00;96777.56;5055987;28;20540;-77
2023/12/05 10:35:44;;;;;;;0.77;0.77;;;4.50;99.90;;;4.88;100.00;96777.41;5054772;28;20467;-76